Time;durP1;ratioP1;P1;durP2;ratioP2;P2;SDS_P1;SDS_P2;PMS_P1;PMS_P2;Temp;Humidity;BMP_temperature;BMP_pressure;BME280_temperature;BME280_humidity;BME280_pressure;Samples;Min_cycle;Max_cycle;Signal;HPM_P1;HPM_P2
2024/01/29 00:00:36;;;;;;;1.33;1.20;;;;;;;6.78;50.81;102890.63;5034316;28;20214;-79
2024/01/29 00:03:03;;;;;;;1.33;1.20;;;;;;;6.80;52.13;102912.34;5036497;28;20211;-79
2024/01/29 00:05:29;;;;;;;1.53;1.43;;;;;;;6.79;51.46;102915.75;5036831;28;20659;-79
2024/01/29 00:07:57;;;;;;;1.60;1.30;;;;;;;6.81;51.95;102921.00;5037664;28;20222;-79
2024/01/29 00:10:25;;;;;;;1.50;1.37;;;;;;;6.80;51.69;102920.13;5037476;28;20211;-79
2024/01/29 00:12:51;;;;;;;1.83;1.20;;;;;;;6.90;49.33;102945.59;5037978;28;20209;-79
2024/01/29 00:15:17;;;;;;;2.10;1.50;;;;;;;6.97;49.47;102955.34;5035704;28;20238;-79
2024/01/29 00:17:44;;;;;;;1.13;1.13;;;;;;;6.89;51.25;102955.91;5036662;28;20237;-79
2024/01/29 00:20:11;;;;;;;1.43;1.20;;;;;;;6.97;50.23;102954.47;5041544;28;20198;-79
2024/01/29 00:22:38;;;;;;;1.40;1.20;;;;;;;6.94;51.45;102955.25;5055938;28;20205;-79
2024/01/29 00:25:07;;;;;;;2.17;1.10;;;;;;;6.94;49.40;102970.84;5042568;28;20592;-79
2024/01/29 00:27:33;;;;;;;1.17;1.07;;;;;;;6.95;49.92;102988.16;5035678;28;20205;-79
2024/01/29 00:30:01;;;;;;;1.40;1.20;;;;;;;7.06;49.06;102993.78;5035499;28;20207;-79
2024/01/29 00:32:27;;;;;;;1.43;1.20;;;;;;;7.10;46.90;103015.56;5036877;28;20210;-79
2024/01/29 00:34:53;;;;;;;1.57;1.30;;;;;;;7.20;47.29;103033.25;5038189;28;20234;-79
2024/01/29 00:37:22;;;;;;;1.37;1.20;;;;;;;7.35;46.22;103062.38;5037250;28;20276;-78
2024/01/29 00:39:48;;;;;;;1.43;1.17;;;;;;;7.34;48.68;103083.13;5047886;28;20201;-79
2024/01/29 00:42:19;;;;;;;1.63;1.20;;;;;;;7.35;48.44;103075.38;5056148;28;20277;-79
2024/01/29 00:44:48;;;;;;;2.97;1.43;;;;;;;7.32;48.18;103067.47;5054581;28;20253;-79
2024/01/29 00:47:14;;;;;;;1.20;1.03;;;;;;;7.35;47.02;103095.25;5055964;28;20718;-78
2024/01/29 00:49:40;;;;;;;1.47;1.30;;;;;;;7.26;45.97;103093.22;5054870;28;20212;-78
2024/01/29 00:52:07;;;;;;;0.97;0.93;;;;;;;7.41;46.67;103126.66;5055336;28;20232;-78
2024/01/29 00:54:33;;;;;;;1.20;1.03;;;;;;;7.42;46.01;103135.38;5055348;28;20213;-78
2024/01/29 00:57:00;;;;;;;1.93;1.17;;;;;;;7.51;46.36;103146.09;5056236;28;20314;-78
2024/01/29 00:59:27;;;;;;;1.63;1.10;;;;;;;7.55;46.46;103148.88;5054653;28;20213;-79
2024/01/29 01:01:54;;;;;;;1.77;1.10;;;;;;;7.43;46.45;103148.41;5055244;28;20204;-78
2024/01/29 01:04:20;;;;;;;1.47;1.30;;;;;;;7.49;47.03;103148.66;5056496;28;20232;-79
2024/01/29 01:06:47;;;;;;;1.50;1.00;;;;;;;7.46;47.28;103139.84;5056704;28;20661;-79
2024/01/29 01:09:14;;;;;;;1.03;1.00;;;;;;;7.36;47.43;103133.41;5047689;28;20248;-78
2024/01/29 01:11:40;;;;;;;1.77;1.43;;;;;;;7.26;47.75;103116.59;5034153;28;20293;-79
2024/01/29 01:14:06;;;;;;;1.40;1.10;;;;;;;7.32;46.76;103124.63;5034233;28;20202;-78
2024/01/29 01:16:34;;;;;;;1.77;1.10;;;;;;;7.35;45.58;103123.84;5033356;28;20652;-78
2024/01/29 01:19:00;;;;;;;1.20;1.10;;;;;;;7.39;46.46;103149.09;5033267;28;20202;-78
2024/01/29 01:21:26;;;;;;;1.03;1.00;;;;;;;7.46;45.76;103143.31;5047227;28;20738;-78
2024/01/29 01:23:53;;;;;;;1.10;1.00;;;;;;;7.34;47.92;103130.75;5053040;28;20202;-78
2024/01/29 01:26:19;;;;;;;1.20;0.97;;;;;;;7.36;47.99;103134.28;5052705;28;20283;-78
2024/01/29 01:28:45;;;;;;;1.73;1.27;;;;;;;7.27;48.26;103092.38;5052064;28;20206;-77
2024/01/29 01:31:12;;;;;;;1.77;1.23;;;;;;;7.32;46.67;103092.56;5052581;28;20327;-78
2024/01/29 01:33:40;;;;;;;0.80;0.80;;;;;;;7.37;46.56;103101.41;5052845;28;20211;-78
2024/01/29 01:36:07;;;;;;;1.73;1.20;;;;;;;7.47;46.41;103094.81;5047012;28;20254;-78
2024/01/29 01:38:33;;;;;;;1.20;1.10;;;;;;;7.55;46.18;103108.97;5031690;28;20230;-78
2024/01/29 01:40:59;;;;;;;1.10;1.00;;;;;;;7.59;45.43;103129.09;5032276;28;20632;-78
2024/01/29 01:43:26;;;;;;;1.23;1.10;;;;;;;7.67;45.22;103153.66;5032615;28;20214;-78
2024/01/29 01:46:14;;;;;;;1.57;1.33;;;;;;;7.73;44.81;103164.28;5032199;28;20230;-78
2024/01/29 01:48:41;;;;;;;2.67;1.17;;;;;;;7.70;44.20;103182.34;5032835;28;20207;-78
2024/01/29 01:51:09;;;;;;;1.70;1.00;;;;;;;7.75;44.55;103193.81;5045179;28;20206;-78
2024/01/29 01:53:37;;;;;;;1.13;1.03;;;;;;;7.66;44.99;103198.66;5052780;28;20209;-78
2024/01/29 01:56:05;;;;;;;1.10;1.00;;;;;;;7.70;43.87;103194.47;5053205;28;20214;-78
2024/01/29 01:58:33;;;;;;;2.00;1.00;;;;;;;7.64;44.09;103207.25;5051738;28;20648;-78
2024/01/29 02:00:59;;;;;;;1.23;1.00;;;;;;;7.66;44.42;103189.97;5051372;28;20202;-78
2024/01/29 02:03:26;;;;;;;1.13;0.90;;;;;;;7.61;44.75;103186.31;5051996;28;20806;-78
2024/01/29 02:05:54;;;;;;;1.50;1.40;;;;;;;7.53;44.85;103176.53;5043346;28;20279;-78
2024/01/29 02:08:21;;;;;;;1.17;1.10;;;;;;;7.52;44.33;103176.47;5051805;28;20201;-78
2024/01/29 02:10:50;;;;;;;1.83;1.00;;;;;;;7.64;43.04;103182.13;5051759;28;20205;-78
2024/01/29 02:13:17;;;;;;;1.13;1.13;;;;;;;7.74;43.87;103206.75;5052798;28;20201;-78
2024/01/29 02:15:43;;;;;;;1.43;1.00;;;;;;;7.85;43.43;103214.94;5051061;28;20221;-78
2024/01/29 02:18:10;;;;;;;1.70;0.93;;;;;;;7.83;42.15;103230.50;5051952;28;20267;-78
2024/01/29 02:20:36;;;;;;;1.43;0.77;;;;;;;7.88;41.98;103238.47;5050767;28;20742;-78
2024/01/29 02:23:04;;;;;;;1.23;0.80;;;;;;;7.92;42.14;103245.56;5051660;28;20206;-78
2024/01/29 02:25:30;;;;;;;0.90;0.80;;;;;;;7.98;40.98;103255.31;5051909;28;20781;-78
2024/01/29 02:27:57;;;;;;;1.00;0.83;;;;;;;8.09;41.60;103267.88;5053837;28;20619;-78
2024/01/29 02:30:23;;;;;;;1.20;0.80;;;;;;;8.12;42.14;103275.78;5047629;28;20206;-78
2024/01/29 02:32:49;;;;;;;0.90;0.90;;;;;;;8.06;42.04;103277.28;5035890;28;20206;-78
2024/01/29 02:35:16;;;;;;;0.90;0.70;;;;;;;8.09;41.26;103270.47;5050365;28;20360;-78
2024/01/29 02:37:42;;;;;;;1.37;1.27;;;;;;;8.14;40.61;103291.47;5055197;28;20229;-78
2024/01/29 02:40:11;;;;;;;0.90;0.90;;;;;;;8.22;40.41;103309.97;5054905;28;20653;-78
2024/01/29 02:42:37;;;;;;;1.30;0.90;;;;;;;8.20;40.55;103322.03;5055402;28;20725;-78
2024/01/29 02:45:04;;;;;;;3.00;1.00;;;;;;;8.29;40.14;103330.19;5055374;28;20221;-78
2024/01/29 02:47:31;;;;;;;0.80;0.80;;;;;;;8.40;40.13;103356.59;5055020;28;20214;-77
2024/01/29 02:49:57;;;;;;;1.03;0.80;;;;;;;8.39;40.74;103352.25;5055693;28;20248;-78
2024/01/29 02:52:23;;;;;;;1.30;0.97;;;;;;;8.42;39.44;103360.19;5056278;28;20201;-78
2024/01/29 02:54:50;;;;;;;1.50;0.80;;;;;;;8.50;40.81;103353.53;5055718;28;20640;-78
2024/01/29 02:57:23;;;;;;;1.10;1.00;;;;;;;8.39;39.50;103354.84;5055284;28;20229;-78
2024/01/29 02:59:49;;;;;;;0.70;0.70;;;;;;;8.40;39.02;103367.88;5054971;28;20589;-78
2024/01/29 03:02:16;;;;;;;0.90;0.90;;;;;;;8.45;40.81;103378.53;5055092;28;20201;-78
2024/01/29 03:04:42;;;;;;;1.80;0.93;;;;;;;8.41;42.27;103361.00;5055927;28;20245;-77
2024/01/29 03:07:09;;;;;;;1.17;1.07;;;;;;;8.34;41.55;103334.75;5056910;28;20251;-78
2024/01/29 03:09:35;;;;;;;0.93;0.90;;;;;;;8.29;39.93;103336.28;5055003;28;20695;-78
2024/01/29 03:12:02;;;;;;;1.37;1.00;;;;;;;8.39;40.78;103326.22;5054843;28;20630;-77
2024/01/29 03:14:30;;;;;;;1.10;0.97;;;;;;;8.26;41.01;103336.13;5054429;28;20591;-78
2024/01/29 03:16:57;;;;;;;2.83;1.03;;;;;;;8.28;40.97;103338.81;5047180;28;20202;-78
2024/01/29 03:19:23;;;;;;;1.10;0.97;;;;;;;8.23;39.89;103351.66;5055125;28;20228;-78
2024/01/29 03:21:50;;;;;;;1.53;1.00;;;;;;;8.38;40.76;103366.06;5054713;28;20292;-78
2024/01/29 03:24:16;;;;;;;0.83;0.83;;;;;;;8.38;40.97;103364.34;5054278;28;20214;-78
2024/01/29 03:26:42;;;;;;;1.00;0.90;;;;;;;8.32;40.00;103375.44;5054751;28;20263;-78
2024/01/29 03:29:09;;;;;;;0.70;0.70;;;;;;;8.35;40.50;103372.06;5054598;28;20198;-78
2024/01/29 03:31:38;;;;;;;1.27;0.80;;;;;;;8.33;41.24;103374.59;5054303;28;20235;-78
2024/01/29 03:34:04;;;;;;;0.80;0.80;;;;;;;8.38;41.37;103372.16;5055328;28;20202;-78
2024/01/29 03:36:30;;;;;;;1.23;1.17;;;;;;;8.34;39.68;103373.78;5054164;28;20225;-78
2024/01/29 03:38:57;;;;;;;0.70;0.70;;;;;;;8.33;40.55;103376.31;5053614;28;20280;-78
2024/01/29 03:41:23;;;;;;;1.87;1.00;;;;;;;8.37;41.47;103364.31;5054656;28;20623;-78
2024/01/29 03:43:49;;;;;;;2.00;0.73;;;;;;;8.35;41.21;103357.31;5053703;28;20197;-78
2024/01/29 03:46:16;;;;;;;1.10;1.00;;;;;;;8.28;42.21;103350.09;5048714;28;20221;-78
2024/01/29 03:48:44;;;;;;;1.20;0.90;;;;;;;8.22;41.26;103342.06;5034792;28;20233;-78
2024/01/29 03:51:11;;;;;;;1.10;0.83;;;;;;;8.24;41.55;103343.00;5046905;28;20208;-78
2024/01/29 03:53:37;;;;;;;1.13;1.03;;;;;;;8.37;42.91;103325.28;5054077;28;20589;-78
2024/01/29 03:56:04;;;;;;;0.80;0.80;;;;;;;7.98;42.99;103317.72;5054492;28;20225;-78
2024/01/29 03:58:30;;;;;;;0.77;0.77;;;;;;;7.99;43.75;103304.78;5054498;28;20645;-79
2024/01/29 04:00:57;;;;;;;0.77;0.77;;;;;;;7.98;42.81;103291.72;5045314;28;20782;-78
2024/01/29 04:03:23;;;;;;;1.00;0.90;;;;;;;8.03;43.86;103265.06;5054421;28;20288;-78
2024/01/29 04:05:51;;;;;;;1.67;1.00;;;;;;;7.99;43.35;103268.38;5053725;28;20225;-78
2024/01/29 04:08:16;;;;;;;0.80;0.80;;;;;;;7.83;44.83;103245.19;5054251;28;20201;-78
2024/01/29 04:10:43;;;;;;;1.40;1.00;;;;;;;7.58;43.09;103236.47;5053907;28;20631;-78
2024/01/29 04:13:09;;;;;;;2.40;0.93;;;;;;;7.65;44.21;103237.59;5055689;28;20690;-77
2024/01/29 04:15:35;;;;;;;1.40;0.90;;;;;;;7.51;44.15;103231.84;5054948;28;20233;-78
2024/01/29 04:18:02;;;;;;;2.80;0.77;;;;;;;7.54;44.05;103227.66;5054168;28;20221;-78
2024/01/29 04:20:28;;;;;;;1.00;0.90;;;;;;;7.48;43.70;103234.34;5053818;28;20558;-78
2024/01/29 04:22:56;;;;;;;1.23;1.00;;;;;;;7.31;43.45;103233.69;5055022;28;20271;-77
2024/01/29 04:25:22;;;;;;;1.77;1.07;;;;;;;7.34;45.03;103228.63;5054076;28;20237;-78
2024/01/29 04:27:51;;;;;;;0.80;0.80;;;;;;;7.33;45.79;103217.34;5054097;28;20216;-78
2024/01/29 04:30:17;;;;;;;1.13;0.90;;;;;;;7.24;46.79;103193.59;5053309;28;20213;-78
2024/01/29 04:32:44;;;;;;;1.37;0.87;;;;;;;7.22;47.72;103169.25;5053691;28;20204;-78
2024/01/29 04:35:10;;;;;;;0.70;0.70;;;;;;;7.49;48.09;103114.88;5053411;28;20640;-78
2024/01/29 04:37:37;;;;;;;2.10;0.97;;;;;;;7.28;49.45;103081.16;5053593;28;20205;-78
2024/01/29 04:40:05;;;;;;;0.87;0.80;;;;;;;7.26;50.55;103043.84;5053056;28;20206;-78
2024/01/29 04:42:32;;;;;;;1.30;1.00;;;;;;;7.20;50.98;102996.88;5053632;28;20209;-78
2024/01/29 04:44:58;;;;;;;1.20;0.77;;;;;;;7.08;50.38;102971.34;5052971;28;20217;-78
2024/01/29 04:47:24;;;;;;;1.00;0.90;;;;;;;7.02;49.76;102944.28;5053518;28;20209;-78
2024/01/29 04:49:51;;;;;;;1.30;1.20;;;;;;;6.80;49.59;102948.69;5053245;28;20209;-78
2024/01/29 04:52:17;;;;;;;0.80;0.80;;;;;;;6.71;49.74;102943.13;5039592;28;20680;-78
2024/01/29 04:54:43;;;;;;;1.00;0.90;;;;;;;6.52;50.75;102938.94;5033087;28;20222;-78
2024/01/29 04:57:11;;;;;;;2.67;0.70;;;;;;;6.41;50.17;102911.72;5033697;28;20206;-78
2024/01/29 04:59:38;;;;;;;1.03;0.87;;;;;;;6.48;52.08;102890.34;5032735;28;20236;-78
2024/01/29 05:02:04;;;;;;;2.50;1.10;;;;;;;6.63;51.42;102872.75;5045709;28;20251;-78
2024/01/29 05:04:31;;;;;;;0.90;0.80;;;;;;;6.74;52.61;102842.91;5052786;28;20271;-78
2024/01/29 05:06:57;;;;;;;1.40;1.17;;;;;;;6.54;49.87;102834.41;5053090;28;20209;-78
2024/01/29 05:09:23;;;;;;;2.53;1.00;;;;;;;6.60;48.89;102875.25;5053073;28;20205;-78
2024/01/29 05:11:50;;;;;;;1.33;0.80;;;;;;;6.61;50.99;102886.53;5053316;28;20266;-78
2024/01/29 05:14:17;;;;;;;1.37;1.00;;;;;;;6.64;50.68;102892.72;5052754;28;20227;-78
2024/01/29 05:16:44;;;;;;;0.80;0.80;;;;;;;6.62;49.73;102880.50;5053304;28;20208;-78
2024/01/29 05:19:10;;;;;;;1.30;1.07;;;;;;;6.52;51.96;102872.38;5053294;28;20227;-78
2024/01/29 05:21:36;;;;;;;0.80;0.80;;;;;;;6.54;52.34;102859.44;5050080;28;20674;-79
2024/01/29 05:24:03;;;;;;;1.17;1.00;;;;;;;6.50;52.96;102836.81;5051362;28;20209;-81
2024/01/29 05:26:30;;;;;;;1.17;0.90;;;;;;;6.47;52.05;102823.75;5054191;28;20281;-80
2024/01/29 05:28:56;;;;;;;1.00;0.90;;;;;;;6.29;52.30;102821.34;5052980;28;20244;-79
2024/01/29 05:31:24;;;;;;;1.00;0.90;;;;;;;6.19;51.85;102822.72;5054658;28;20223;-80
2024/01/29 05:33:50;;;;;;;0.80;0.80;;;;;;;6.31;52.23;102817.09;5053240;28;20229;-80
2024/01/29 05:36:16;;;;;;;1.23;0.87;;;;;;;6.28;49.71;102819.56;5038103;28;20234;-81
2024/01/29 05:38:43;;;;;;;0.97;0.73;;;;;;;6.32;49.65;102842.19;5033869;28;20784;-81
2024/01/29 05:41:09;;;;;;;1.30;1.10;;;;;;;6.32;49.78;102852.56;5034709;28;20210;-79
2024/01/29 05:43:35;;;;;;;1.33;1.10;;;;;;;6.33;49.58;102880.31;5035151;28;20202;-81
2024/01/29 05:46:02;;;;;;;1.57;1.10;;;;;;;6.35;47.94;102889.91;5045290;28;20279;-82
2024/01/29 05:48:30;;;;;;;1.57;1.03;;;;;;;6.52;47.50;102910.41;5053019;28;20238;-79
2024/01/29 05:50:56;;;;;;;1.47;1.33;;;;;;;6.81;46.50;102921.00;5052808;28;20213;-80
2024/01/29 05:53:23;;;;;;;1.20;1.10;;;;;;;7.08;47.03;102954.88;5053692;28;20205;-79
2024/01/29 05:55:49;;;;;;;1.40;1.27;;;;;;;7.06;45.38;102988.56;5053664;28;20229;-79
2024/01/29 05:58:15;;;;;;;1.90;1.23;;;;;;;7.14;46.36;103002.72;5039888;28;20276;-77
2024/01/29 06:00:42;;;;;;;1.50;1.40;;;;;;;7.24;48.78;103006.53;5031505;28;20260;-80
2024/01/29 06:03:08;;;;;;;1.10;1.10;;;;;;;7.19;50.27;102987.28;5033081;28;20206;-79
2024/01/29 06:05:36;;;;;;;1.10;1.00;;;;;;;7.23;49.40;102975.31;5033161;28;20238;-80
2024/01/29 06:08:02;;;;;;;1.30;1.20;;;;;;;7.10;48.54;102979.19;5045329;28;20209;-80
2024/01/29 06:10:29;;;;;;;2.13;1.20;;;;;;;7.10;46.87;102977.47;5053110;28;20683;-80
2024/01/29 06:12:55;;;;;;;1.13;1.03;;;;;;;7.23;48.21;102981.38;5052504;28;20209;-79
2024/01/29 06:15:21;;;;;;;1.20;1.10;;;;;;;7.13;48.60;102980.16;5052139;28;20226;-77
2024/01/29 06:17:48;;;;;;;1.33;1.23;;;;;;;7.12;49.19;102956.75;5052533;28;20270;-79
2024/01/29 06:20:14;;;;;;;1.30;1.20;;;;;;;7.14;49.00;102952.50;5051770;28;20278;-77
2024/01/29 06:22:42;;;;;;;0.97;0.97;;;;;;;7.05;49.25;102955.63;5052630;28;20201;-79
2024/01/29 06:25:11;;;;;;;1.20;1.10;;;;;;;7.05;48.27;102963.41;5041194;28;20608;-81
2024/01/29 06:27:38;;;;;;;1.57;1.00;;;;;;;7.08;47.90;102963.53;5032821;28;20637;-77
2024/01/29 06:30:06;;;;;;;1.53;1.10;;;;;;;7.15;48.44;102970.75;5043520;28;20251;-78
2024/01/29 06:32:32;;;;;;;1.97;1.20;;;;;;;7.19;48.08;102958.72;5053367;28;20206;-79
2024/01/29 06:34:59;;;;;;;1.20;1.10;;;;;;;7.28;48.21;102969.44;5053235;28;20244;-79
2024/01/29 06:37:26;;;;;;;1.63;1.40;;;;;;;7.30;46.63;102982.50;5053923;28;20267;-80
2024/01/29 06:39:54;;;;;;;1.30;1.20;;;;;;;7.19;47.52;102996.81;5053323;28;20271;-79
2024/01/29 06:42:20;;;;;;;1.77;1.23;;;;;;;7.19;46.42;102996.81;5053261;28;20672;-78
2024/01/29 06:44:46;;;;;;;3.80;1.20;;;;;;;7.16;47.08;103024.44;5051873;28;20643;-78
2024/01/29 06:47:14;;;;;;;1.43;1.33;;;;;;;7.14;46.70;103018.31;5052851;28;20737;-78
2024/01/29 06:49:41;;;;;;;2.03;1.30;;;;;;;7.39;47.36;103013.09;5053005;28;20233;-77
2024/01/29 06:52:07;;;;;;;1.50;1.40;;;;;;;7.58;46.70;103022.47;5044864;28;20206;-79
2024/01/29 06:54:34;;;;;;;4.30;1.70;;;;;;;7.66;46.51;103039.19;5053474;28;20201;-79
2024/01/29 06:57:01;;;;;;;1.53;1.30;;;;;;;7.45;46.84;103053.22;5053937;28;20248;-79
2024/01/29 06:59:27;;;;;;;1.80;1.63;;;;;;;7.47;46.34;103061.03;5037903;28;20284;-78
2024/01/29 07:01:58;;;;;;;2.70;1.40;;;;;;;7.61;47.38;103057.25;5032389;28;20207;-78
2024/01/29 07:04:24;;;;;;;1.63;1.37;;;;;;;7.38;46.84;103059.00;5046080;28;20205;-78
2024/01/29 07:06:51;;;;;;;1.40;1.30;;;;;;;7.38;46.35;103065.94;5052061;28;20275;-77
2024/01/29 07:09:17;;;;;;;1.40;1.30;;;;;;;7.51;46.67;103070.72;5030818;28;20209;-77
2024/01/29 07:11:44;;;;;;;3.73;1.80;;;;;;;7.62;47.47;103071.13;5030420;28;20665;-77
2024/01/29 07:14:11;;;;;;;1.30;1.20;;;;;;;7.62;46.13;103077.19;5030957;28;20231;-77
2024/01/29 07:16:38;;;;;;;1.43;1.33;;;;;;;7.64;46.14;103085.94;5034237;28;20279;-77
2024/01/29 07:19:04;;;;;;;1.40;1.20;;;;;;;7.61;47.11;103087.53;5034275;28;20288;-77
2024/01/29 07:21:30;;;;;;;1.43;1.33;;;;;;;7.65;47.82;103081.63;5048984;28;20247;-78
2024/01/29 07:23:57;;;;;;;1.50;1.40;;;;;;;7.43;48.50;103061.75;5035845;28;20211;-77
2024/01/29 07:26:24;;;;;;;1.23;1.10;;;;;;;7.26;47.68;103056.84;5036691;28;20237;-77
2024/01/29 07:28:50;;;;;;;1.47;1.37;;;;;;;7.11;48.37;103058.84;5035001;28;20290;-77
2024/01/29 07:31:18;;;;;;;2.43;1.70;;;;;;;6.99;49.98;103046.28;5036036;28;20206;-76
2024/01/29 07:33:44;;;;;;;2.77;1.57;;;;;;;7.04;49.04;103013.59;5036035;28;20767;-77
2024/01/29 07:36:11;;;;;;;1.50;1.40;;;;;;;7.38;48.71;103006.16;5035663;28;20674;-77
2024/01/29 07:38:37;;;;;;;2.17;1.40;;;;;;;7.43;48.58;103007.19;5035195;28;20654;-77
2024/01/29 07:41:04;;;;;;;2.27;2.07;;;;;;;7.40;50.30;102996.72;5034828;28;20209;-78
2024/01/29 07:43:30;;;;;;;2.27;1.53;;;;;;;7.31;50.97;102966.06;5034798;28;20374;-77
2024/01/29 07:45:56;;;;;;;1.67;1.57;;;;;;;7.33;50.79;102941.03;5032649;28;20817;-76
2024/01/29 07:48:24;;;;;;;1.37;1.23;;;;;;;7.16;51.95;102915.34;5032892;28;20260;-77
2024/01/29 07:50:50;;;;;;;5.40;5.07;;;;;;;7.18;51.86;102901.53;5043713;28;20205;-78
2024/01/29 07:53:16;;;;;;;2.53;2.33;;;;;;;7.16;51.55;102899.75;5039603;28;20443;-77
2024/01/29 07:55:43;;;;;;;1.90;1.47;;;;;;;7.19;51.25;102879.91;5048943;28;20225;-78
2024/01/29 07:58:09;;;;;;;1.93;1.27;;;;;;;7.15;49.47;102904.91;5043898;28;20205;-78
2024/01/29 08:00:35;;;;;;;1.57;1.47;;;;;;;7.16;48.51;102902.38;5039101;28;20230;-78
2024/01/29 08:03:02;;;;;;;3.07;2.50;;;;;;;7.31;50.68;102927.09;5035729;28;20214;-76
2024/01/29 08:05:29;;;;;;;1.93;1.70;;;;;;;7.44;50.00;102924.09;5036199;28;20229;-76
2024/01/29 08:07:56;;;;;;;2.77;2.10;;;;;;;7.55;49.86;102922.75;5051080;28;20213;-77
2024/01/29 08:10:23;;;;;;;3.27;2.97;;;;;;;7.48;50.24;102925.97;5052295;28;20290;-76
2024/01/29 08:12:49;;;;;;;2.53;2.33;;;;;;;7.58;50.35;102908.09;5052188;28;20255;-77
2024/01/29 08:15:15;;;;;;;1.97;1.87;;;;;;;7.59;51.52;102896.84;5052244;28;20226;-77
2024/01/29 08:17:42;;;;;;;1.60;1.50;;;;;;;7.42;50.95;102888.50;5052849;28;20738;-77
2024/01/29 08:20:09;;;;;;;1.90;1.80;;;;;;;7.52;49.34;102888.84;5052329;28;20253;-77
2024/01/29 08:22:37;;;;;;;2.63;2.00;;;;;;;7.61;51.30;102884.78;5052769;28;20213;-77
2024/01/29 08:25:03;;;;;;;2.47;1.90;;;;;;;7.64;50.96;102884.91;5051937;28;20623;-77
2024/01/29 08:27:31;;;;;;;2.07;1.87;;;;;;;7.47;50.34;102871.34;5052421;28;20746;-77
2024/01/29 08:29:58;;;;;;;2.50;2.30;;;;;;;7.63;50.17;102884.03;5052205;28;20210;-76
2024/01/29 08:32:24;;;;;;;2.17;1.60;;;;;;;7.69;49.15;102893.72;5052845;28;20303;-77
2024/01/29 08:34:51;;;;;;;2.27;1.50;;;;;;;7.69;48.63;102909.31;5052090;28;20225;-76
2024/01/29 08:37:17;;;;;;;1.70;1.60;;;;;;;7.84;49.07;102925.41;5052336;28;20307;-77
2024/01/29 08:39:45;;;;;;;1.70;1.60;;;;;;;7.84;48.70;102929.75;5051707;28;20221;-76
2024/01/29 08:42:11;;;;;;;1.50;1.40;;;;;;;7.76;47.93;102940.75;5052360;28;20339;-77
2024/01/29 08:44:38;;;;;;;1.70;1.60;;;;;;;7.85;49.14;102950.59;5052197;28;20648;-77
2024/01/29 08:47:04;;;;;;;1.90;1.60;;;;;;;7.85;49.94;102929.81;5053269;28;20236;-76
2024/01/29 08:49:31;;;;;;;2.50;1.60;;;;;;;7.75;51.39;102920.81;5052163;28;20206;-77
2024/01/29 08:51:57;;;;;;;1.53;1.43;;;;;;;7.54;54.31;102874.19;5051784;28;20255;-76
2024/01/29 08:54:23;;;;;;;1.43;1.33;;;;;;;7.51;54.17;102827.31;5051751;28;20206;-76
2024/01/29 08:56:51;;;;;;;1.47;1.37;;;;;;;7.51;52.04;102822.13;5052012;28;20209;-76
2024/01/29 08:59:19;;;;;;;2.60;2.40;;;;;;;7.44;51.71;102829.69;5051554;28;20221;-76
2024/01/29 09:01:45;;;;;;;4.70;4.40;;;;;;;7.47;50.87;102832.34;5051697;28;20213;-77
2024/01/29 09:04:12;;;;;;;2.53;1.60;;;;;;;7.50;50.89;102854.13;5051949;28;20251;-76
2024/01/29 09:06:38;;;;;;;5.07;4.77;;;;;;;7.59;51.49;102837.97;5051621;28;20237;-76
2024/01/29 09:09:05;;;;;;;3.17;2.03;;;;;;;7.50;51.49;102858.47;5051258;28;20212;-77
2024/01/29 09:11:31;;;;;;;2.00;1.80;;;;;;;7.44;50.96;102845.25;5051910;28;20202;-77
2024/01/29 09:13:59;;;;;;;2.53;2.33;;;;;;;7.40;51.48;102846.88;5051076;28;20220;-76
2024/01/29 09:16:25;;;;;;;2.03;1.80;;;;;;;7.48;51.87;102836.72;5051503;28;20232;-77
2024/01/29 09:18:51;;;;;;;2.53;2.08;;;;;;;7.51;51.64;102826.41;5051698;28;20410;-77
2024/01/29 09:21:17;;;;;;;2.17;1.93;;;;;;;7.42;49.97;102837.41;5050541;28;20232;-76
2024/01/29 09:23:44;;;;;;;2.77;2.57;;;;;;;7.58;51.29;102841.38;5045398;28;20213;-78
2024/01/29 09:26:10;;;;;;;4.43;1.93;;;;;;;7.62;50.83;102825.06;5047802;28;20592;-77
2024/01/29 09:28:37;;;;;;;2.40;2.20;;;;;;;7.68;50.99;102826.97;5051958;28;20260;-78
2024/01/29 09:31:05;;;;;;;2.97;2.67;;;;;;;7.81;50.11;102833.44;5051856;28;20209;-77
2024/01/29 09:33:32;;;;;;;2.23;2.00;;;;;;;7.81;50.31;102839.53;5051795;28;20264;-77
2024/01/29 09:35:58;;;;;;;1.77;1.67;;;;;;;7.82;50.43;102856.88;5051595;28;20255;-78
2024/01/29 09:38:24;;;;;;;2.07;1.87;;;;;;;7.91;50.30;102846.78;5051021;28;20202;-78
2024/01/29 09:40:52;;;;;;;1.73;1.63;;;;;;;8.01;49.72;102855.75;5051789;28;20221;-78
2024/01/29 09:43:21;;;;;;;1.80;1.70;;;;;;;8.01;50.45;102860.94;5051533;28;20205;-77
2024/01/29 09:45:49;;;;;;;2.63;2.13;;;;;;;8.01;50.60;102849.63;5051383;28;20229;-78
2024/01/29 09:48:17;;;;;;;2.93;2.73;;;;;;;8.04;49.97;102862.75;5052142;28;20228;-78
2024/01/29 09:50:44;;;;;;;2.50;2.20;;;;;;;8.06;51.27;102869.75;5050799;28;20253;-77
2024/01/29 09:53:14;;;;;;;3.93;3.63;;;;;;;8.09;50.52;102866.38;5050943;28;20202;-78
2024/01/29 09:55:40;;;;;;;3.33;3.03;;;;;;;8.09;51.11;102866.38;5052870;28;20236;-78
2024/01/29 09:58:07;;;;;;;2.43;2.23;;;;;;;8.13;50.87;102861.31;5052292;28;20212;-79
2024/01/29 10:00:33;;;;;;;2.40;1.73;;;;;;;8.13;50.89;102863.91;5051517;28;20225;-79
2024/01/29 10:03:03;;;;;;;1.93;1.73;;;;;;;8.18;50.92;102852.75;5041870;28;20229;-79
2024/01/29 10:05:32;;;;;;;1.93;1.70;;;;;;;8.27;50.74;102847.84;5032761;28;20239;-79
2024/01/29 10:07:59;;;;;;;1.90;1.70;;;;;;;8.48;50.45;102850.19;5034015;28;20209;-78
2024/01/29 10:10:26;;;;;;;2.40;2.20;;;;;;;8.61;49.96;102848.84;5032474;28;20238;-76
2024/01/29 10:13:03;;;;;;;2.87;1.73;;;;;;;8.61;49.43;102874.88;5031762;28;20214;-77
2024/01/29 10:15:30;;;;;;;2.80;2.33;;;;;;;8.87;49.38;102886.03;5031460;28;20222;-77
2024/01/29 10:17:56;;;;;;;2.10;1.90;;;;;;;8.93;48.87;102892.28;5032563;28;20340;-77
2024/01/29 10:20:23;;;;;;;2.10;2.00;;;;;;;8.99;48.85;102904.59;5037691;28;20225;-77
2024/01/29 10:22:58;;;;;;;2.13;1.93;;;;;;;9.06;48.91;102914.34;5052139;28;20209;-78
2024/01/29 10:25:25;;;;;;;2.33;1.70;;;;;;;9.04;49.69;102915.13;5052919;28;20274;-79
2024/01/29 10:27:51;;;;;;;2.00;1.90;;;;;;;9.13;50.73;102912.78;5052232;28;20209;-79
2024/01/29 10:30:17;;;;;;;2.73;2.00;;;;;;;9.15;51.56;102874.63;5051868;28;20216;-79
2024/01/29 10:32:44;;;;;;;2.37;2.17;;;;;;;9.04;52.52;102857.81;5052461;28;20205;-78
2024/01/29 10:35:10;;;;;;;2.00;1.67;;;;;;;9.00;49.57;102851.66;5052648;28;20276;-78
2024/01/29 10:37:37;;;;;;;2.17;1.50;;;;;;;9.07;51.79;102844.88;5037331;28;20209;-77
2024/01/29 10:40:07;;;;;;;1.83;1.63;;;;;;;9.17;50.29;102846.00;5031308;28;20291;-77
2024/01/29 10:42:34;;;;;;;1.70;1.60;;;;;;;8.96;50.98;102865.44;5032610;28;20292;-79
2024/01/29 10:45:01;;;;;;;1.93;1.80;;;;;;;9.12;49.43;102856.31;5032374;28;20874;-77
2024/01/29 10:47:31;;;;;;;2.20;2.00;;;;;;;9.41;49.37;102874.41;5051940;28;20212;-78
2024/01/29 10:49:57;;;;;;;2.33;2.13;;;;;;;9.41;50.17;102861.38;5054464;28;20198;-77
2024/01/29 10:52:24;;;;;;;2.10;1.90;;;;;;;9.43;50.80;102865.78;5056407;28;20213;-77
2024/01/29 10:54:52;;;;;;;2.80;2.60;;;;;;;9.51;51.18;102843.41;5039120;28;20227;-78
2024/01/29 10:57:21;;;;;;;1.70;1.60;;;;;;;9.49;50.32;102847.69;5036680;28;20230;-78
2024/01/29 10:59:48;;;;;;;2.47;1.90;;;;;;;9.52;50.08;102852.09;5035604;28;20234;-77
2024/01/29 11:02:15;;;;;;;2.40;2.13;;;;;;;9.65;50.56;102842.81;5045727;28;20202;-77
2024/01/29 11:04:43;;;;;;;2.40;2.20;;;;;;;9.74;49.90;102853.50;5053953;28;20233;-77
2024/01/29 11:07:15;;;;;;;2.37;2.17;;;;;;;9.81;49.05;102873.66;5053915;28;20689;-77
2024/01/29 11:09:48;;;;;;;2.87;1.67;;;;;;;9.80;48.24;102902.31;5053891;28;20292;-77
2024/01/29 11:12:15;;;;;;;1.97;1.87;;;;;;;10.00;48.86;102908.88;5054828;28;20201;-77
2024/01/29 11:14:47;;;;;;;2.57;2.00;;;;;;;10.00;48.67;102921.03;5054363;28;20713;-78
2024/01/29 11:17:14;;;;;;;2.67;2.03;;;;;;;9.99;48.33;102935.81;5055161;28;20238;-78
2024/01/29 11:19:43;;;;;;;1.80;1.70;;;;;;;10.16;48.44;102941.41;5055271;28;20206;-78
2024/01/29 11:22:10;;;;;;;2.13;1.73;;;;;;;10.13;48.44;102936.16;5051811;28;20206;-78
2024/01/29 11:24:36;;;;;;;2.30;2.07;;;;;;;10.26;48.84;102937.28;5055159;28;20234;-77
2024/01/29 11:27:09;;;;;;;3.00;2.40;;;;;;;10.31;49.38;102936.59;5054339;28;20214;-78
2024/01/29 11:29:37;;;;;;;2.33;2.10;;;;;;;10.33;48.37;102934.91;5054510;28;20279;-78
2024/01/29 11:32:06;;;;;;;2.23;2.03;;;;;;;10.25;49.35;102939.03;5055261;28;20668;-79